sensor_id;sensor_type;location;lat;lon;timestamp;P1;durP1;ratioP1;P2;durP2;ratioP2
36839;SDS011;24406;51.640;9.566;2023-09-12T00:01:08;23.08;;;13.30;;
36839;SDS011;24406;51.640;9.566;2023-09-12T00:06:10;24.92;;;11.52;;
36839;SDS011;24406;51.640;9.566;2023-09-12T00:11:13;17.83;;;11.15;;
36839;SDS011;24406;51.640;9.566;2023-09-12T00:16:14;14.05;;;10.48;;
36839;SDS011;24406;51.640;9.566;2023-09-12T00:21:16;13.10;;;11.38;;
36839;SDS011;24406;51.640;9.566;2023-09-12T00:26:19;19.23;;;11.85;;
36839;SDS011;24406;51.640;9.566;2023-09-12T00:31:22;19.30;;;13.52;;
36839;SDS011;24406;51.640;9.566;2023-09-12T00:36:24;18.70;;;15.77;;
36839;SDS011;24406;51.640;9.566;2023-09-12T00:41:27;21.75;;;16.30;;
36839;SDS011;24406;51.640;9.566;2023-09-12T00:46:28;21.95;;;16.80;;
36839;SDS011;24406;51.640;9.566;2023-09-12T00:51:30;16.67;;;14.98;;
36839;SDS011;24406;51.640;9.566;2023-09-12T00:56:33;16.65;;;13.63;;
36839;SDS011;24406;51.640;9.566;2023-09-12T01:01:35;23.00;;;13.57;;
36839;SDS011;24406;51.640;9.566;2023-09-12T01:06:37;23.08;;;15.27;;
36839;SDS011;24406;51.640;9.566;2023-09-12T01:11:40;21.70;;;14.38;;
36839;SDS011;24406;51.640;9.566;2023-09-12T01:16:41;20.13;;;14.50;;
36839;SDS011;24406;51.640;9.566;2023-09-12T01:21:55;26.10;;;14.90;;
36839;SDS011;24406;51.640;9.566;2023-09-12T01:32:31;19.98;;;16.05;;
36839;SDS011;24406;51.640;9.566;2023-09-12T01:37:33;21.90;;;18.42;;
36839;SDS011;24406;51.640;9.566;2023-09-12T01:42:36;29.00;;;18.35;;
36839;SDS011;24406;51.640;9.566;2023-09-12T01:47:39;22.73;;;18.63;;
36839;SDS011;24406;51.640;9.566;2023-09-12T01:52:41;26.40;;;18.00;;
36839;SDS011;24406;51.640;9.566;2023-09-12T01:57:44;27.25;;;18.73;;
36839;SDS011;24406;51.640;9.566;2023-09-12T02:02:47;27.52;;;19.70;;
36839;SDS011;24406;51.640;9.566;2023-09-12T02:07:49;22.90;;;18.15;;
36839;SDS011;24406;51.640;9.566;2023-09-12T02:12:52;24.45;;;17.13;;
36839;SDS011;24406;51.640;9.566;2023-09-12T02:17:53;20.10;;;16.60;;
36839;SDS011;24406;51.640;9.566;2023-09-12T02:22:55;23.80;;;15.45;;
36839;SDS011;24406;51.640;9.566;2023-09-12T02:27:58;18.15;;;13.90;;
36839;SDS011;24406;51.640;9.566;2023-09-12T02:32:59;20.90;;;14.57;;
36839;SDS011;24406;51.640;9.566;2023-09-12T02:38:01;23.17;;;15.13;;
36839;SDS011;24406;51.640;9.566;2023-09-12T02:43:04;18.00;;;16.02;;
36839;SDS011;24406;51.640;9.566;2023-09-12T02:48:06;22.42;;;16.20;;
36839;SDS011;24406;51.640;9.566;2023-09-12T02:53:07;20.05;;;16.92;;
36839;SDS011;24406;51.640;9.566;2023-09-12T02:58:10;22.08;;;15.18;;
36839;SDS011;24406;51.640;9.566;2023-09-12T03:03:12;18.55;;;16.08;;
36839;SDS011;24406;51.640;9.566;2023-09-12T03:08:13;23.02;;;18.50;;
36839;SDS011;24406;51.640;9.566;2023-09-12T03:13:16;24.45;;;20.30;;
36839;SDS011;24406;51.640;9.566;2023-09-12T03:18:18;27.55;;;21.30;;
36839;SDS011;24406;51.640;9.566;2023-09-12T03:23:20;27.85;;;20.38;;
36839;SDS011;24406;51.640;9.566;2023-09-12T03:28:23;24.35;;;20.67;;
36839;SDS011;24406;51.640;9.566;2023-09-12T03:33:24;27.98;;;22.33;;
36839;SDS011;24406;51.640;9.566;2023-09-12T03:38:26;30.55;;;21.40;;
36839;SDS011;24406;51.640;9.566;2023-09-12T03:43:29;27.48;;;21.42;;
36839;SDS011;24406;51.640;9.566;2023-09-12T03:48:31;23.83;;;20.77;;
36839;SDS011;24406;51.640;9.566;2023-09-12T03:53:33;23.20;;;19.75;;
36839;SDS011;24406;51.640;9.566;2023-09-12T03:58:36;27.38;;;20.15;;
36839;SDS011;24406;51.640;9.566;2023-09-12T04:03:38;41.38;;;21.95;;
36839;SDS011;24406;51.640;9.566;2023-09-12T04:08:39;31.17;;;20.08;;
36839;SDS011;24406;51.640;9.566;2023-09-12T04:13:43;43.35;;;23.65;;
36839;SDS011;24406;51.640;9.566;2023-09-12T04:18:45;31.50;;;23.45;;
36839;SDS011;24406;51.640;9.566;2023-09-12T04:23:46;30.83;;;26.05;;
36839;SDS011;24406;51.640;9.566;2023-09-12T04:28:51;32.60;;;25.05;;
36839;SDS011;24406;51.640;9.566;2023-09-12T04:33:53;25.23;;;21.50;;
36839;SDS011;24406;51.640;9.566;2023-09-12T04:38:55;32.53;;;24.15;;
36839;SDS011;24406;51.640;9.566;2023-09-12T04:43:58;31.02;;;23.67;;
36839;SDS011;24406;51.640;9.566;2023-09-12T04:49:02;34.03;;;26.33;;
36839;SDS011;24406;51.640;9.566;2023-09-12T04:54:05;38.17;;;25.95;;
36839;SDS011;24406;51.640;9.566;2023-09-12T04:59:08;35.40;;;24.92;;
36839;SDS011;24406;51.640;9.566;2023-09-12T05:04:09;28.48;;;23.80;;
36839;SDS011;24406;51.640;9.566;2023-09-12T05:09:11;25.90;;;23.15;;
36839;SDS011;24406;51.640;9.566;2023-09-12T05:14:14;31.63;;;25.35;;
36839;SDS011;24406;51.640;9.566;2023-09-12T05:19:16;32.10;;;24.10;;
36839;SDS011;24406;51.640;9.566;2023-09-12T05:24:17;29.95;;;24.55;;
36839;SDS011;24406;51.640;9.566;2023-09-12T05:29:20;26.70;;;23.85;;
36839;SDS011;24406;51.640;9.566;2023-09-12T05:34:22;29.13;;;21.70;;
36839;SDS011;24406;51.640;9.566;2023-09-12T05:39:24;28.17;;;21.05;;
36839;SDS011;24406;51.640;9.566;2023-09-12T05:44:27;32.45;;;22.65;;
36839;SDS011;24406;51.640;9.566;2023-09-12T05:49:29;23.77;;;20.88;;
36839;SDS011;24406;51.640;9.566;2023-09-12T05:54:30;28.55;;;22.15;;
36839;SDS011;24406;51.640;9.566;2023-09-12T05:59:34;28.05;;;20.17;;
36839;SDS011;24406;51.640;9.566;2023-09-12T06:04:37;28.00;;;21.95;;
36839;SDS011;24406;51.640;9.566;2023-09-12T06:09:38;29.73;;;23.33;;
36839;SDS011;24406;51.640;9.566;2023-09-12T06:14:41;25.23;;;22.02;;
36839;SDS011;24406;51.640;9.566;2023-09-12T06:19:43;30.52;;;25.65;;
36839;SDS011;24406;51.640;9.566;2023-09-12T06:24:44;35.63;;;26.65;;
36839;SDS011;24406;51.640;9.566;2023-09-12T06:29:48;25.63;;;21.83;;
36839;SDS011;24406;51.640;9.566;2023-09-12T06:34:49;26.02;;;21.50;;
36839;SDS011;24406;51.640;9.566;2023-09-12T06:39:51;23.02;;;20.38;;
36839;SDS011;24406;51.640;9.566;2023-09-12T06:44:54;24.40;;;21.83;;
36839;SDS011;24406;51.640;9.566;2023-09-12T06:49:55;26.75;;;21.08;;
36839;SDS011;24406;51.640;9.566;2023-09-12T06:54:57;23.92;;;21.63;;
36839;SDS011;24406;51.640;9.566;2023-09-12T07:00:00;26.10;;;22.67;;
36839;SDS011;24406;51.640;9.566;2023-09-12T07:05:02;21.35;;;18.45;;
36839;SDS011;24406;51.640;9.566;2023-09-12T07:10:05;24.65;;;18.83;;
36839;SDS011;24406;51.640;9.566;2023-09-12T07:15:09;22.50;;;20.08;;
36839;SDS011;24406;51.640;9.566;2023-09-12T07:20:11;24.80;;;20.90;;
36839;SDS011;24406;51.640;9.566;2023-09-12T07:25:13;24.92;;;21.83;;
36839;SDS011;24406;51.640;9.566;2023-09-12T07:30:17;21.75;;;19.58;;
36839;SDS011;24406;51.640;9.566;2023-09-12T07:35:18;23.95;;;17.80;;
36839;SDS011;24406;51.640;9.566;2023-09-12T07:40:20;21.95;;;15.18;;
36839;SDS011;24406;51.640;9.566;2023-09-12T07:45:23;19.35;;;12.95;;
36839;SDS011;24406;51.640;9.566;2023-09-12T07:50:25;18.83;;;12.45;;
36839;SDS011;24406;51.640;9.566;2023-09-12T07:55:26;15.13;;;12.77;;
36839;SDS011;24406;51.640;9.566;2023-09-12T08:00:32;15.25;;;11.65;;
36839;SDS011;24406;51.640;9.566;2023-09-12T08:05:37;16.73;;;14.48;;
36839;SDS011;24406;51.640;9.566;2023-09-12T08:10:39;18.60;;;12.75;;
36839;SDS011;24406;51.640;9.566;2023-09-12T08:15:42;14.48;;;12.93;;
36839;SDS011;24406;51.640;9.566;2023-09-12T08:20:43;18.30;;;14.23;;
36839;SDS011;24406;51.640;9.566;2023-09-12T08:25:44;15.25;;;12.05;;
36839;SDS011;24406;51.640;9.566;2023-09-12T08:30:47;15.23;;;13.00;;
36839;SDS011;24406;51.640;9.566;2023-09-12T08:35:49;15.80;;;11.55;;
36839;SDS011;24406;51.640;9.566;2023-09-12T08:40:51;16.17;;;12.30;;
36839;SDS011;24406;51.640;9.566;2023-09-12T08:45:54;12.70;;;11.32;;
36839;SDS011;24406;51.640;9.566;2023-09-12T08:50:55;10.93;;;9.57;;
36839;SDS011;24406;51.640;9.566;2023-09-12T08:55:57;12.65;;;9.40;;
36839;SDS011;24406;51.640;9.566;2023-09-12T09:01:01;18.10;;;8.68;;
36839;SDS011;24406;51.640;9.566;2023-09-12T09:06:05;22.15;;;8.70;;
36839;SDS011;24406;51.640;9.566;2023-09-12T09:11:07;9.27;;;8.18;;
36839;SDS011;24406;51.640;9.566;2023-09-12T09:16:13;15.60;;;9.40;;
36839;SDS011;24406;51.640;9.566;2023-09-12T09:21:16;12.35;;;10.02;;
36839;SDS011;24406;51.640;9.566;2023-09-12T09:26:18;11.73;;;9.60;;
36839;SDS011;24406;51.640;9.566;2023-09-12T09:31:21;13.88;;;10.55;;
36839;SDS011;24406;51.640;9.566;2023-09-12T09:36:23;11.38;;;10.27;;
36839;SDS011;24406;51.640;9.566;2023-09-12T09:41:24;14.30;;;10.18;;
36839;SDS011;24406;51.640;9.566;2023-09-12T09:46:27;10.90;;;9.80;;
36839;SDS011;24406;51.640;9.566;2023-09-12T09:51:29;11.43;;;9.75;;
36839;SDS011;24406;51.640;9.566;2023-09-12T09:56:31;8.82;;;7.60;;
36839;SDS011;24406;51.640;9.566;2023-09-12T10:01:34;12.27;;;7.40;;
36839;SDS011;24406;51.640;9.566;2023-09-12T10:06:37;9.25;;;6.60;;
36839;SDS011;24406;51.640;9.566;2023-09-12T10:11:40;7.90;;;5.80;;
36839;SDS011;24406;51.640;9.566;2023-09-12T10:16:45;5.82;;;5.40;;
36839;SDS011;24406;51.640;9.566;2023-09-12T10:21:48;6.00;;;5.20;;
36839;SDS011;24406;51.640;9.566;2023-09-12T10:26:50;6.45;;;5.85;;
36839;SDS011;24406;51.640;9.566;2023-09-12T10:31:53;6.35;;;5.75;;
36839;SDS011;24406;51.640;9.566;2023-09-12T10:36:55;6.07;;;5.47;;
36839;SDS011;24406;51.640;9.566;2023-09-12T10:42:01;5.43;;;4.80;;
36839;SDS011;24406;51.640;9.566;2023-09-12T10:47:06;5.38;;;4.97;;
36839;SDS011;24406;51.640;9.566;2023-09-12T10:52:09;6.75;;;5.03;;
36839;SDS011;24406;51.640;9.566;2023-09-12T10:57:10;7.43;;;4.72;;
36839;SDS011;24406;51.640;9.566;2023-09-12T11:02:31;5.18;;;4.68;;
36839;SDS011;24406;51.640;9.566;2023-09-12T11:07:43;6.72;;;5.75;;
36839;SDS011;24406;51.640;9.566;2023-09-12T11:12:46;6.43;;;5.07;;
36839;SDS011;24406;51.640;9.566;2023-09-12T11:17:59;5.53;;;4.65;;
36839;SDS011;24406;51.640;9.566;2023-09-12T11:23:09;5.57;;;5.07;;
36839;SDS011;24406;51.640;9.566;2023-09-12T11:28:11;6.03;;;5.20;;
36839;SDS011;24406;51.640;9.566;2023-09-12T11:33:14;8.15;;;5.05;;
36839;SDS011;24406;51.640;9.566;2023-09-12T11:38:19;5.53;;;4.70;;
36839;SDS011;24406;51.640;9.566;2023-09-12T11:43:28;5.72;;;5.18;;
36839;SDS011;24406;51.640;9.566;2023-09-12T11:48:31;6.05;;;4.43;;
36839;SDS011;24406;51.640;9.566;2023-09-12T11:53:33;4.45;;;4.05;;
36839;SDS011;24406;51.640;9.566;2023-09-12T11:58:35;5.85;;;4.53;;
36839;SDS011;24406;51.640;9.566;2023-09-12T12:03:39;4.95;;;4.15;;
36839;SDS011;24406;51.640;9.566;2023-09-12T12:08:41;4.05;;;3.65;;
36839;SDS011;24406;51.640;9.566;2023-09-12T12:13:43;4.32;;;3.50;;
36839;SDS011;24406;51.640;9.566;2023-09-12T12:18:45;6.63;;;3.65;;
36839;SDS011;24406;51.640;9.566;2023-09-12T12:23:56;3.92;;;3.50;;
36839;SDS011;24406;51.640;9.566;2023-09-12T12:28:59;3.75;;;3.17;;
36839;SDS011;24406;51.640;9.566;2023-09-12T12:34:05;3.83;;;3.42;;
36839;SDS011;24406;51.640;9.566;2023-09-12T12:39:07;6.38;;;3.33;;
36839;SDS011;24406;51.640;9.566;2023-09-12T12:44:11;6.75;;;2.90;;
36839;SDS011;24406;51.640;9.566;2023-09-12T12:49:16;3.78;;;3.47;;
36839;SDS011;24406;51.640;9.566;2023-09-12T12:54:21;5.22;;;3.17;;
36839;SDS011;24406;51.640;9.566;2023-09-12T12:59:23;3.85;;;3.20;;
36839;SDS011;24406;51.640;9.566;2023-09-12T13:04:26;3.22;;;3.00;;
36839;SDS011;24406;51.640;9.566;2023-09-12T13:09:27;3.40;;;3.10;;
36839;SDS011;24406;51.640;9.566;2023-09-12T13:14:28;5.15;;;3.20;;
36839;SDS011;24406;51.640;9.566;2023-09-12T13:19:33;3.38;;;3.15;;
36839;SDS011;24406;51.640;9.566;2023-09-12T13:24:35;6.35;;;3.05;;
36839;SDS011;24406;51.640;9.566;2023-09-12T13:29:36;3.95;;;2.80;;
36839;SDS011;24406;51.640;9.566;2023-09-12T13:34:39;2.70;;;2.50;;
36839;SDS011;24406;51.640;9.566;2023-09-12T13:39:41;4.22;;;2.65;;
36839;SDS011;24406;51.640;9.566;2023-09-12T13:44:47;6.05;;;3.08;;
36839;SDS011;24406;51.640;9.566;2023-09-12T13:49:50;3.95;;;3.00;;
36839;SDS011;24406;51.640;9.566;2023-09-12T13:54:53;3.90;;;3.15;;
36839;SDS011;24406;51.640;9.566;2023-09-12T13:59:54;3.45;;;3.15;;
36839;SDS011;24406;51.640;9.566;2023-09-12T14:04:57;2.92;;;2.72;;
36839;SDS011;24406;51.640;9.566;2023-09-12T14:09:59;6.72;;;3.45;;
36839;SDS011;24406;51.640;9.566;2023-09-12T14:15:01;7.03;;;3.13;;
36839;SDS011;24406;51.640;9.566;2023-09-12T14:20:05;2.63;;;2.42;;
36839;SDS011;24406;51.640;9.566;2023-09-12T14:25:08;2.35;;;2.15;;
36839;SDS011;24406;51.640;9.566;2023-09-12T14:30:14;2.45;;;2.22;;
36839;SDS011;24406;51.640;9.566;2023-09-12T14:35:17;2.60;;;2.40;;
36839;SDS011;24406;51.640;9.566;2023-09-12T14:40:19;3.75;;;2.45;;
36839;SDS011;24406;51.640;9.566;2023-09-12T14:45:21;3.55;;;2.58;;
36839;SDS011;24406;51.640;9.566;2023-09-12T14:50:25;3.35;;;2.17;;
36839;SDS011;24406;51.640;9.566;2023-09-12T14:55:29;3.42;;;2.20;;
36839;SDS011;24406;51.640;9.566;2023-09-12T15:00:30;3.60;;;2.60;;
36839;SDS011;24406;51.640;9.566;2023-09-12T15:05:34;2.78;;;2.50;;
36839;SDS011;24406;51.640;9.566;2023-09-12T15:10:35;3.72;;;2.88;;
36839;SDS011;24406;51.640;9.566;2023-09-12T15:15:37;3.10;;;2.80;;
36839;SDS011;24406;51.640;9.566;2023-09-12T15:20:40;4.03;;;2.95;;
36839;SDS011;24406;51.640;9.566;2023-09-12T15:25:41;7.25;;;2.83;;
36839;SDS011;24406;51.640;9.566;2023-09-12T15:30:43;3.85;;;2.65;;
36839;SDS011;24406;51.640;9.566;2023-09-12T15:35:46;2.67;;;2.47;;
36839;SDS011;24406;51.640;9.566;2023-09-12T15:40:47;9.80;;;3.05;;
36839;SDS011;24406;51.640;9.566;2023-09-12T15:45:49;5.97;;;2.67;;
36839;SDS011;24406;51.640;9.566;2023-09-12T15:50:52;3.10;;;2.85;;
36839;SDS011;24406;51.640;9.566;2023-09-12T15:55:53;5.15;;;2.35;;
36839;SDS011;24406;51.640;9.566;2023-09-12T16:00:55;2.70;;;2.50;;
36839;SDS011;24406;51.640;9.566;2023-09-12T16:05:59;3.78;;;2.47;;
36839;SDS011;24406;51.640;9.566;2023-09-12T16:11:00;5.40;;;2.80;;
36839;SDS011;24406;51.640;9.566;2023-09-12T16:16:02;2.70;;;2.50;;
36839;SDS011;24406;51.640;9.566;2023-09-12T16:21:05;5.05;;;2.75;;
36839;SDS011;24406;51.640;9.566;2023-09-12T16:26:07;2.88;;;2.63;;
36839;SDS011;24406;51.640;9.566;2023-09-12T16:31:08;3.25;;;2.95;;
36839;SDS011;24406;51.640;9.566;2023-09-12T16:36:11;3.38;;;3.08;;
36839;SDS011;24406;51.640;9.566;2023-09-12T16:41:13;4.40;;;3.10;;
36839;SDS011;24406;51.640;9.566;2023-09-12T16:46:14;6.30;;;3.25;;
36839;SDS011;24406;51.640;9.566;2023-09-12T16:51:17;3.95;;;2.95;;
36839;SDS011;24406;51.640;9.566;2023-09-12T16:56:19;4.32;;;3.58;;
36839;SDS011;24406;51.640;9.566;2023-09-12T17:01:20;6.18;;;3.50;;
36839;SDS011;24406;51.640;9.566;2023-09-12T17:06:23;5.63;;;3.03;;
36839;SDS011;24406;51.640;9.566;2023-09-12T17:11:25;3.40;;;3.10;;
36839;SDS011;24406;51.640;9.566;2023-09-12T17:16:27;3.35;;;3.05;;
36839;SDS011;24406;51.640;9.566;2023-09-12T17:21:30;5.35;;;3.08;;
36839;SDS011;24406;51.640;9.566;2023-09-12T17:26:31;5.30;;;3.60;;
36839;SDS011;24406;51.640;9.566;2023-09-12T17:31:33;5.65;;;3.60;;
36839;SDS011;24406;51.640;9.566;2023-09-12T17:36:35;9.07;;;4.22;;
36839;SDS011;24406;51.640;9.566;2023-09-12T17:41:37;10.45;;;4.28;;
36839;SDS011;24406;51.640;9.566;2023-09-12T17:46:39;6.28;;;3.97;;
36839;SDS011;24406;51.640;9.566;2023-09-12T17:51:42;5.70;;;3.83;;
36839;SDS011;24406;51.640;9.566;2023-09-12T17:56:43;5.20;;;4.68;;
36839;SDS011;24406;51.640;9.566;2023-09-12T18:01:45;5.70;;;4.45;;
36839;SDS011;24406;51.640;9.566;2023-09-12T18:06:48;6.18;;;4.03;;
36839;SDS011;24406;51.640;9.566;2023-09-12T18:11:51;10.27;;;4.53;;
36839;SDS011;24406;51.640;9.566;2023-09-12T18:16:52;4.10;;;3.78;;
36839;SDS011;24406;51.640;9.566;2023-09-12T18:21:55;6.78;;;4.72;;
36839;SDS011;24406;51.640;9.566;2023-09-12T18:26:57;5.28;;;4.22;;
36839;SDS011;24406;51.640;9.566;2023-09-12T18:31:59;5.43;;;4.28;;
36839;SDS011;24406;51.640;9.566;2023-09-12T18:37:01;9.00;;;4.85;;
36839;SDS011;24406;51.640;9.566;2023-09-12T18:42:04;9.00;;;4.60;;
36839;SDS011;24406;51.640;9.566;2023-09-12T18:47:06;9.95;;;5.28;;
36839;SDS011;24406;51.640;9.566;2023-09-12T18:52:09;9.27;;;4.82;;
36839;SDS011;24406;51.640;9.566;2023-09-12T18:57:11;7.93;;;5.05;;
36839;SDS011;24406;51.640;9.566;2023-09-12T19:02:12;6.40;;;5.20;;
36839;SDS011;24406;51.640;9.566;2023-09-12T19:07:15;9.23;;;5.38;;
36839;SDS011;24406;51.640;9.566;2023-09-12T19:12:17;6.80;;;6.10;;
36839;SDS011;24406;51.640;9.566;2023-09-12T19:17:18;8.35;;;6.35;;
36839;SDS011;24406;51.640;9.566;2023-09-12T19:22:21;7.88;;;6.10;;
36839;SDS011;24406;51.640;9.566;2023-09-12T19:27:23;6.22;;;5.40;;
36839;SDS011;24406;51.640;9.566;2023-09-12T19:32:25;6.57;;;5.78;;
36839;SDS011;24406;51.640;9.566;2023-09-12T19:37:29;9.73;;;5.78;;
36839;SDS011;24406;51.640;9.566;2023-09-12T19:42:30;6.72;;;6.07;;
36839;SDS011;24406;51.640;9.566;2023-09-12T19:47:32;6.65;;;6.03;;
36839;SDS011;24406;51.640;9.566;2023-09-12T19:52:36;6.97;;;5.90;;
36839;SDS011;24406;51.640;9.566;2023-09-12T19:57:37;8.35;;;5.88;;
36839;SDS011;24406;51.640;9.566;2023-09-12T20:02:40;10.25;;;5.43;;
36839;SDS011;24406;51.640;9.566;2023-09-12T20:07:44;9.25;;;6.22;;
36839;SDS011;24406;51.640;9.566;2023-09-12T20:12:45;11.73;;;6.90;;
36839;SDS011;24406;51.640;9.566;2023-09-12T20:17:48;9.57;;;6.65;;
36839;SDS011;24406;51.640;9.566;2023-09-12T20:22:53;8.20;;;5.93;;
36839;SDS011;24406;51.640;9.566;2023-09-12T20:27:55;6.40;;;5.82;;
36839;SDS011;24406;51.640;9.566;2023-09-12T20:32:59;6.78;;;6.18;;
36839;SDS011;24406;51.640;9.566;2023-09-12T20:38:03;7.45;;;6.75;;
36839;SDS011;24406;51.640;9.566;2023-09-12T20:43:05;8.68;;;6.95;;
36839;SDS011;24406;51.640;9.566;2023-09-12T20:48:07;7.32;;;6.15;;
36839;SDS011;24406;51.640;9.566;2023-09-12T20:53:10;10.75;;;6.97;;
36839;SDS011;24406;51.640;9.566;2023-09-12T20:58:15;9.13;;;6.75;;
36839;SDS011;24406;51.640;9.566;2023-09-12T21:03:16;10.10;;;7.13;;
36839;SDS011;24406;51.640;9.566;2023-09-12T21:08:19;10.75;;;7.97;;
36839;SDS011;24406;51.640;9.566;2023-09-12T21:13:21;8.73;;;8.02;;
36839;SDS011;24406;51.640;9.566;2023-09-12T21:18:23;11.57;;;8.70;;
36839;SDS011;24406;51.640;9.566;2023-09-12T21:23:25;10.30;;;7.45;;
36839;SDS011;24406;51.640;9.566;2023-09-12T21:28:27;8.43;;;7.47;;
36839;SDS011;24406;51.640;9.566;2023-09-12T21:33:28;8.85;;;7.03;;
36839;SDS011;24406;51.640;9.566;2023-09-12T21:38:31;10.52;;;8.02;;
36839;SDS011;24406;51.640;9.566;2023-09-12T21:43:33;9.65;;;8.75;;
36839;SDS011;24406;51.640;9.566;2023-09-12T21:48:35;10.43;;;9.43;;
36839;SDS011;24406;51.640;9.566;2023-09-12T21:53:37;11.30;;;9.05;;
36839;SDS011;24406;51.640;9.566;2023-09-12T21:58:39;9.52;;;8.23;;
36839;SDS011;24406;51.640;9.566;2023-09-12T22:03:41;11.45;;;8.45;;
36839;SDS011;24406;51.640;9.566;2023-09-12T22:08:44;12.35;;;10.63;;
36839;SDS011;24406;51.640;9.566;2023-09-12T22:13:46;14.20;;;7.50;;
36839;SDS011;24406;51.640;9.566;2023-09-12T22:18:48;7.75;;;4.10;;
36839;SDS011;24406;51.640;9.566;2023-09-12T22:23:50;10.63;;;5.38;;
36839;SDS011;24406;51.640;9.566;2023-09-12T22:28:52;5.80;;;5.10;;
36839;SDS011;24406;51.640;9.566;2023-09-12T22:33:54;4.75;;;4.10;;
36839;SDS011;24406;51.640;9.566;2023-09-12T22:38:56;4.82;;;4.35;;
36839;SDS011;24406;51.640;9.566;2023-09-12T22:43:58;8.40;;;4.82;;
36839;SDS011;24406;51.640;9.566;2023-09-12T22:49:01;7.40;;;4.22;;
36839;SDS011;24406;51.640;9.566;2023-09-12T22:54:04;7.82;;;6.45;;
36839;SDS011;24406;51.640;9.566;2023-09-12T22:59:06;7.68;;;6.90;;
36839;SDS011;24406;51.640;9.566;2023-09-12T23:04:08;13.82;;;7.90;;
36839;SDS011;24406;51.640;9.566;2023-09-12T23:09:11;10.93;;;8.55;;
36839;SDS011;24406;51.640;9.566;2023-09-12T23:14:12;8.05;;;7.25;;
36839;SDS011;24406;51.640;9.566;2023-09-12T23:19:14;5.18;;;4.50;;
36839;SDS011;24406;51.640;9.566;2023-09-12T23:24:16;5.65;;;4.05;;
36839;SDS011;24406;51.640;9.566;2023-09-12T23:29:18;6.43;;;3.28;;
36839;SDS011;24406;51.640;9.566;2023-09-12T23:34:20;4.15;;;3.75;;
36839;SDS011;24406;51.640;9.566;2023-09-12T23:39:23;5.20;;;4.70;;
36839;SDS011;24406;51.640;9.566;2023-09-12T23:44:24;7.95;;;5.50;;
36839;SDS011;24406;51.640;9.566;2023-09-12T23:49:26;5.55;;;5.03;;
36839;SDS011;24406;51.640;9.566;2023-09-12T23:54:28;6.40;;;5.70;;
36839;SDS011;24406;51.640;9.566;2023-09-12T23:59:30;6.80;;;6.18;;
